Parc Cabasa, Puerto Rico
Current Conditions -  °F | °C
As of 5:56 AM on Sunday 26 Oct 2014 (Local Time) from TJSJ Reporting Station
Scattered Clouds Scattered Clouds  
Wind Chill: 79°   Ceiling: Unl
Heat Index: 83°   Visibility: 10mi
Dew Point: 75°   Wind: 0mph
Humidity: 88%   Direction: NA
Pressure: 29.85"   Gusts: NA
Location:  18.2501°N, 66.1032°W
Report Text: TJSJ 260956Z 00000KT 10SM FEW022 SCT070 26/24 A2985 RMK AO2 SLP106 T02610239
Loading
Personal Weather Stations






























Interactive Weather Map
Tropical Storm Tracking
New forecast layout! Learn more

10-Day Weather Forecast

Advertisements
Track Severe Weather on mobile